AVQ22 CYMJ-CYQT
Flight info
| Callsign | AVQ22 |
|---|---|
| Flight time | N/A |
| Altitude | 39000 |
| Route | CYMJ1 YMJ DCT DURUR Q828 GABOV Q831 AGLIN |
| Aircraft | A20N/M-SDE2E3FGHIRWXY/LB1 |
Departure
| Time | 2026-04-29 23:49 |
|---|---|
| Airport | Moose Jaw Air Vice Marshal C. M. McEwen Airport (CYMJ) |
Arrival
| Time | N/A |
|---|---|
| Airport | Thunder Bay International Airport (CYQT) |
| Time | Latitude | Longitude | Altitude | Speed | Heading |
|---|---|---|---|---|---|
| 2026-04-29 23:47 | 50.32805 | -105.54316 | 1886 ft | 0 kts | 199° |
| 2026-04-29 23:48 | 50.32758 | -105.54342 | 1884 ft | 14 kts | 201° |
| 2026-04-29 23:48 | 50.32737 | -105.54453 | 1883 ft | 17 kts | 292° |
| 2026-04-29 23:48 | 50.32903 | -105.54937 | 1882 ft | 84 kts | 299° |
| 2026-04-29 23:48 | 50.33277 | -105.56014 | 1882 ft | 138 kts | 298° |
| 2026-04-29 23:49 | 50.33792 | -105.57522 | 2065 ft | 166 kts | 297° |
| 2026-04-29 23:49 | 50.34311 | -105.59065 | 2801 ft | 154 kts | 297° |
| 2026-04-29 23:49 | 50.34803 | -105.60536 | 3443 ft | 152 kts | 297° |
| 2026-04-29 23:49 | 50.35290 | -105.61982 | 4044 ft | 147 kts | 299° |
| 2026-04-29 23:50 | 50.35984 | -105.63093 | 4521 ft | 147 kts | 336° |
| 2026-04-29 23:50 | 50.36995 | -105.63261 | 4890 ft | 154 kts | 17° |
| 2026-04-29 23:50 | 50.38293 | -105.60825 | 5978 ft | 150 kts | 58° |
| 2026-04-29 23:51 | 50.38854 | -105.59401 | 6515 ft | 156 kts | 59° |
| 2026-04-29 23:51 | 50.39416 | -105.57922 | 7130 ft | 159 kts | 59° |
| 2026-04-29 23:51 | 50.39991 | -105.56426 | 7773 ft | 161 kts | 58° |
| 2026-04-29 23:51 | 50.40584 | -105.54915 | 8358 ft | 171 kts | 58° |
| 2026-04-29 23:52 | 50.41055 | -105.53720 | 8313 ft | 210 kts | 58° |
| 2026-04-29 23:52 | 50.41863 | -105.51666 | 8777 ft | 233 kts | 58° |
| 2026-04-29 23:52 | 50.42692 | -105.49547 | 9903 ft | 221 kts | 58° |
| 2026-04-29 23:52 | 50.43480 | -105.47521 | 10829 ft | 220 kts | 58° |
| 2026-04-29 23:53 | 50.44363 | -105.45290 | 10924 ft | 252 kts | 58° |
| 2026-04-29 23:53 | 50.45287 | -105.43009 | 11940 ft | 240 kts | 57° |
| 2026-04-29 23:53 | 50.46157 | -105.40882 | 13080 ft | 223 kts | 57° |
| 2026-04-29 23:53 | 50.46980 | -105.38857 | 13883 ft | 223 kts | 57° |
| 2026-04-29 23:54 | 50.47836 | -105.36730 | 14321 ft | 237 kts | 58° |
| 2026-04-29 23:54 | 50.48718 | -105.34510 | 14905 ft | 242 kts | 58° |
| 2026-04-29 23:54 | 50.49602 | -105.32257 | 15563 ft | 242 kts | 58° |
| 2026-04-29 23:54 | 50.50471 | -105.30013 | 16197 ft | 244 kts | 59° |
| 2026-04-29 23:55 | 50.51358 | -105.27692 | 16795 ft | 246 kts | 59° |